createdAt,value
2022-10-05T00:01:24.763Z,10.23
2022-10-05T00:03:53.401Z,9.45
2022-10-05T00:06:19.855Z,9.27
2022-10-05T00:08:46.290Z,10.73
2022-10-05T00:11:16.588Z,7.75
2022-10-05T00:13:43.194Z,10.75
2022-10-05T00:16:19.627Z,8.88
2022-10-05T00:18:48.937Z,8.00
2022-10-05T00:21:22.113Z,10.63
2022-10-05T00:23:49.087Z,9.70
2022-10-05T00:26:19.999Z,10.80
2022-10-05T00:28:46.699Z,8.18
2022-10-05T00:31:40.997Z,13.80
2022-10-05T00:34:07.479Z,9.93
2022-10-05T00:36:33.953Z,9.18
2022-10-05T00:39:01.691Z,9.18
2022-10-05T00:41:50.689Z,10.85
2022-10-05T00:44:24.834Z,10.57
2022-10-05T00:47:03.247Z,10.30
2022-10-05T00:49:44.409Z,9.05
2022-10-05T00:52:34.587Z,9.55
2022-10-05T00:55:18.851Z,13.98
2022-10-05T00:58:10.922Z,9.60
2022-10-05T01:00:45.820Z,13.37
2022-10-05T01:03:21.825Z,11.18
2022-10-05T01:05:56.068Z,10.65
2022-10-05T01:08:41.677Z,9.85
2022-10-05T01:11:17.419Z,9.82
2022-10-05T01:13:46.765Z,9.27
2022-10-05T01:16:20.825Z,10.30
2022-10-05T01:18:59.370Z,9.80
2022-10-05T01:21:27.112Z,11.80
2022-10-05T01:24:20.420Z,14.15
2022-10-05T01:26:56.106Z,10.07
2022-10-05T01:29:24.171Z,9.27
2022-10-05T01:32:10.261Z,11.50
2022-10-05T01:34:57.573Z,9.60
2022-10-05T01:37:31.052Z,13.38
2022-10-05T01:40:08.129Z,10.18
2022-10-05T01:42:53.806Z,9.38
2022-10-05T01:45:35.184Z,9.18
2022-10-05T01:48:19.775Z,10.73
2022-10-05T01:50:56.488Z,10.18
2022-10-05T01:53:22.767Z,12.07
2022-10-05T01:56:04.359Z,10.52
2022-10-05T01:58:45.238Z,13.80
2022-10-05T02:01:33.523Z,11.80
2022-10-05T02:04:07.595Z,9.40
2022-10-05T02:06:39.271Z,12.63
2022-10-05T02:09:15.717Z,11.97
2022-10-05T02:11:45.936Z,10.80
2022-10-05T02:14:13.258Z,8.52
2022-10-05T02:16:41.564Z,10.50
2022-10-05T02:19:18.385Z,9.82
2022-10-05T02:21:47.583Z,9.43
2022-10-05T02:24:20.150Z,10.82
2022-10-05T02:29:14.564Z,10.73
2022-10-05T02:32:04.898Z,10.45
2022-10-05T02:34:39.984Z,9.38
2022-10-05T02:37:29.925Z,11.65
2022-10-05T02:40:14.926Z,10.18
2022-10-05T02:43:20.252Z,11.80
2022-10-05T02:45:58.211Z,9.88
2022-10-05T02:48:43.479Z,13.90
2022-10-05T02:51:24.168Z,10.98
2022-10-05T02:54:02.663Z,13.18
2022-10-05T02:56:38.811Z,12.38
2022-10-05T02:59:19.081Z,9.00
2022-10-05T03:01:50.562Z,13.95
2022-10-05T03:04:29.457Z,10.32
2022-10-05T03:07:08.721Z,13.30
2022-10-05T03:10:19.556Z,12.70
2022-10-05T03:12:51.872Z,12.75
2022-10-05T03:16:17.013Z,15.52
2022-10-05T03:19:18.439Z,9.48
2022-10-05T03:21:53.850Z,13.00
2022-10-05T03:24:31.069Z,13.38
2022-10-05T03:27:15.066Z,11.27
2022-10-05T03:29:52.036Z,14.63
2022-10-05T03:32:31.120Z,14.15
2022-10-05T03:35:13.660Z,12.60
2022-10-05T03:37:57.785Z,13.88
2022-10-05T03:40:50.879Z,12.68
2022-10-05T03:43:32.048Z,15.70
2022-10-05T03:46:14.146Z,13.02
2022-10-05T03:48:52.687Z,13.82
2022-10-05T03:51:21.727Z,16.65
2022-10-05T03:53:53.129Z,14.40
2022-10-05T03:56:30.335Z,13.77
2022-10-05T03:59:01.018Z,15.13
2022-10-05T04:01:56.833Z,14.02
2022-10-05T04:04:27.571Z,14.95
2022-10-05T04:06:55.360Z,12.43
2022-10-05T04:09:30.040Z,13.93
2022-10-05T04:12:24.425Z,12.73
2022-10-05T04:14:54.882Z,12.63
2022-10-05T04:17:36.452Z,11.57
2022-10-05T04:20:07.179Z,13.38
2022-10-05T04:22:45.356Z,16.20
2022-10-05T04:25:21.579Z,12.02
2022-10-05T04:27:52.954Z,13.73
2022-10-05T04:30:19.880Z,13.02
2022-10-05T04:32:55.249Z,14.80
2022-10-05T04:35:32.962Z,11.00
2022-10-05T04:38:20.386Z,12.00
2022-10-05T04:41:14.508Z,12.23
2022-10-05T04:44:18.463Z,13.02
2022-10-05T04:47:01.609Z,11.63
2022-10-05T04:49:36.972Z,16.27
2022-10-05T04:52:30.844Z,13.73
2022-10-05T04:55:00.195Z,12.45
2022-10-05T04:57:49.461Z,14.45
2022-10-05T05:00:26.835Z,15.68
2022-10-05T05:03:20.807Z,11.98
2022-10-05T05:06:17.459Z,16.40
2022-10-05T05:09:21.442Z,14.02
2022-10-05T05:11:55.037Z,16.02
2022-10-05T05:14:27.935Z,14.48
2022-10-05T05:17:31.898Z,11.27
2022-10-05T05:20:07.197Z,15.20
2022-10-05T05:22:53.970Z,12.80
2022-10-05T05:25:31.757Z,16.33
2022-10-05T05:28:21.212Z,11.75
2022-10-05T05:30:50.598Z,12.38
2022-10-05T05:33:42.562Z,15.75
2022-10-05T05:36:23.202Z,16.77
2022-10-05T05:39:04.229Z,13.70
2022-10-05T05:41:37.572Z,12.88
2022-10-05T05:44:05.959Z,12.85
2022-10-05T05:47:02.853Z,14.27
2022-10-05T05:49:45.303Z,12.82
2022-10-05T05:52:36.754Z,12.88
2022-10-05T05:55:20.430Z,14.50
2022-10-05T05:57:52.792Z,17.23
2022-10-05T06:00:23.294Z,12.68
2022-10-05T06:03:02.510Z,17.17
2022-10-05T06:05:38.442Z,14.48
2022-10-05T06:08:35.919Z,13.40
2022-10-05T06:11:22.763Z,15.07
2022-10-05T06:13:49.427Z,11.75
2022-10-05T06:16:38.594Z,13.73
2022-10-05T06:19:10.463Z,12.10
2022-10-05T06:21:43.111Z,17.02
2022-10-05T06:24:25.697Z,17.10
2022-10-05T06:27:07.236Z,15.30
2022-10-05T06:29:59.919Z,13.13
2022-10-05T06:32:41.485Z,15.45
2022-10-05T06:35:31.136Z,11.85
2022-10-05T06:38:06.614Z,12.98
2022-10-05T06:40:56.003Z,15.73
2022-10-05T06:43:44.240Z,11.25
2022-10-05T06:46:18.081Z,9.65
2022-10-05T06:49:00.253Z,10.70
2022-10-05T06:51:42.000Z,12.93
2022-10-05T06:54:34.720Z,12.02
2022-10-05T06:57:09.134Z,12.25
2022-10-05T06:59:58.980Z,14.02
2022-10-05T07:02:32.446Z,9.82
2022-10-05T07:05:23.614Z,12.68
2022-10-05T07:07:55.441Z,11.63
2022-10-05T07:10:42.536Z,14.55
2022-10-05T07:13:42.604Z,13.70
2022-10-05T07:16:21.208Z,15.50
2022-10-05T07:18:54.755Z,12.95
2022-10-05T07:21:51.049Z,12.95
2022-10-05T07:24:34.036Z,13.27
2022-10-05T07:27:13.380Z,12.57
2022-10-05T07:29:54.073Z,13.43
2022-10-05T07:32:26.353Z,14.80
2022-10-05T07:35:05.391Z,15.73
2022-10-05T07:37:57.002Z,13.52
2022-10-05T07:40:43.295Z,12.27
2022-10-05T07:43:40.276Z,12.10
2022-10-05T07:46:22.565Z,14.65
2022-10-05T07:48:55.880Z,10.05
2022-10-05T07:51:41.515Z,12.95
2022-10-05T07:54:21.827Z,12.18
2022-10-05T07:56:52.454Z,10.88
2022-10-05T07:59:39.232Z,13.15
2022-10-05T08:02:15.731Z,12.90
2022-10-05T08:04:54.727Z,12.07
2022-10-05T08:07:21.315Z,11.82
2022-10-05T08:10:04.223Z,11.38
2022-10-05T08:12:31.624Z,11.93
2022-10-05T08:15:09.960Z,10.85
2022-10-05T08:17:52.551Z,9.55
2022-10-05T08:20:45.292Z,10.80
2022-10-05T08:23:20.876Z,10.90
2022-10-05T08:26:22.656Z,10.05
2022-10-05T08:28:59.634Z,12.35
2022-10-05T08:31:33.686Z,11.82
2022-10-05T08:34:20.967Z,9.85
2022-10-05T08:37:09.050Z,7.55
2022-10-05T08:39:58.465Z,8.18
2022-10-05T08:42:49.395Z,7.50
2022-10-05T08:45:54.192Z,8.20
2022-10-05T08:49:17.404Z,8.55
2022-10-05T08:52:02.078Z,8.70
2022-10-05T08:54:34.017Z,11.30
2022-10-05T08:57:25.020Z,8.93
2022-10-05T09:00:10.509Z,8.88
2022-10-05T09:02:47.048Z,8.07
2022-10-05T09:05:35.151Z,10.55
2022-10-05T09:08:23.439Z,8.07
2022-10-05T09:11:03.582Z,6.68
2022-10-05T09:13:35.941Z,9.43
2022-10-05T09:16:36.783Z,11.30
2022-10-05T09:19:12.125Z,10.00
2022-10-05T09:21:43.811Z,9.45
2022-10-05T09:24:13.320Z,6.20
2022-10-05T09:27:01.994Z,9.10
2022-10-05T09:29:47.189Z,10.23
2022-10-05T09:32:40.937Z,7.22
2022-10-05T09:35:28.999Z,7.07
2022-10-05T09:37:55.328Z,8.85
2022-10-05T09:40:41.671Z,7.80
2022-10-05T09:43:11.109Z,6.95
2022-10-05T09:46:07.114Z,7.82
2022-10-05T09:48:58.255Z,6.50
2022-10-05T09:51:36.872Z,9.15
2022-10-05T09:54:28.721Z,5.93
2022-10-05T09:57:08.596Z,7.07
2022-10-05T10:00:12.566Z,7.78
2022-10-05T10:02:55.925Z,8.48
2022-10-05T10:05:34.536Z,8.05
2022-10-05T10:08:22.571Z,10.02
2022-10-05T10:11:13.689Z,6.78
2022-10-05T10:13:53.364Z,6.20
2022-10-05T10:16:29.838Z,8.25
2022-10-05T10:19:23.967Z,8.23
2022-10-05T10:22:09.321Z,7.32
2022-10-05T10:24:52.306Z,7.57
2022-10-05T10:28:07.138Z,8.05
2022-10-05T10:30:51.842Z,9.18
2022-10-05T10:33:36.932Z,7.55
2022-10-05T10:36:21.950Z,5.82
2022-10-05T10:39:11.280Z,8.10
2022-10-05T10:41:55.900Z,6.03
2022-10-05T10:44:35.584Z,7.30
2022-10-05T10:47:01.871Z,8.60
2022-10-05T10:49:34.148Z,4.63
2022-10-05T10:52:19.446Z,4.95
2022-10-05T10:54:55.019Z,5.60
2022-10-05T10:57:40.005Z,5.35
2022-10-05T11:00:21.727Z,7.00
2022-10-05T11:03:01.015Z,5.10
2022-10-05T11:05:53.652Z,8.27
2022-10-05T11:08:35.388Z,4.70
2022-10-05T11:11:23.208Z,6.73
2022-10-05T11:14:11.408Z,5.57
2022-10-05T11:17:05.831Z,6.60
2022-10-05T11:19:59.638Z,5.65
2022-10-05T11:22:53.066Z,4.80
2022-10-05T11:25:44.171Z,5.97
2022-10-05T11:28:34.706Z,6.28
2022-10-05T11:31:28.240Z,5.22
2022-10-05T11:34:03.840Z,5.53
2022-10-05T11:36:30.102Z,4.80
2022-10-05T11:39:18.900Z,6.05
2022-10-05T11:42:14.326Z,4.60
2022-10-05T11:44:59.644Z,5.60
2022-10-05T11:47:32.522Z,6.65
2022-10-05T11:50:20.826Z,5.20
2022-10-05T11:52:59.414Z,6.15
2022-10-05T11:55:50.589Z,6.07
2022-10-05T11:58:25.779Z,5.90
2022-10-05T12:01:06.812Z,6.25
2022-10-05T12:04:10.863Z,5.05
2022-10-05T12:06:58.886Z,7.93
2022-10-05T12:09:37.488Z,8.50
2022-10-05T12:12:09.936Z,7.15
2022-10-05T12:17:10.241Z,8.13
2022-10-05T12:19:48.504Z,9.55
2022-10-05T12:22:22.073Z,4.40
2022-10-05T12:25:01.662Z,4.30
2022-10-05T12:27:39.765Z,5.15
2022-10-05T12:30:36.399Z,3.75
2022-10-05T12:33:12.739Z,6.90
2022-10-05T12:35:49.204Z,3.30
2022-10-05T12:38:25.495Z,4.03
2022-10-05T12:41:04.427Z,3.40
2022-10-05T12:43:30.766Z,3.78
2022-10-05T12:46:18.643Z,4.45
2022-10-05T12:49:19.906Z,3.70
2022-10-05T12:51:59.228Z,4.18
2022-10-05T12:54:54.236Z,3.50
2022-10-05T12:57:39.889Z,3.40
2022-10-05T13:00:11.458Z,4.38
2022-10-05T13:02:41.334Z,3.57
2022-10-05T13:05:10.688Z,4.35
2022-10-05T13:08:04.903Z,2.65
2022-10-05T13:10:48.331Z,2.95
2022-10-05T13:13:22.166Z,2.78
2022-10-05T13:16:04.673Z,4.18
2022-10-05T13:21:19.859Z,2.70
2022-10-05T13:23:46.197Z,3.47
2022-10-05T13:26:17.669Z,4.30
2022-10-05T13:29:11.559Z,2.78
2022-10-05T13:31:46.497Z,2.53
2022-10-05T13:34:30.455Z,2.47
2022-10-05T13:37:00.310Z,4.22
2022-10-05T13:39:38.836Z,3.50
2022-10-05T13:42:19.171Z,3.95
2022-10-05T13:45:01.298Z,3.85
2022-10-05T13:47:30.449Z,6.40
2022-10-05T13:50:09.081Z,4.35
2022-10-05T13:53:08.577Z,3.22
2022-10-05T13:55:43.948Z,2.55
2022-10-05T13:58:42.942Z,2.38
2022-10-05T14:01:28.254Z,2.20
2022-10-05T14:04:10.135Z,2.42
2022-10-05T14:06:37.476Z,3.90
2022-10-05T14:09:04.008Z,5.50
2022-10-05T14:11:34.772Z,4.72
2022-10-05T14:14:03.048Z,2.38
2022-10-05T14:16:33.005Z,2.25
2022-10-05T14:19:05.506Z,2.95
2022-10-05T14:21:43.859Z,4.25
2022-10-05T14:27:26.321Z,3.25
2022-10-05T14:29:58.065Z,2.28
2022-10-05T14:32:26.994Z,2.17
2022-10-05T14:35:05.163Z,2.08
2022-10-05T14:37:34.573Z,4.03
2022-10-05T14:40:23.051Z,2.65
2022-10-05T14:42:49.932Z,3.55
2022-10-05T14:45:19.612Z,2.50
2022-10-05T14:48:06.027Z,1.75
2022-10-05T14:50:32.605Z,2.65
2022-10-05T14:53:18.981Z,2.10
2022-10-05T14:55:51.488Z,3.15
2022-10-05T14:58:39.698Z,2.83
2022-10-05T15:01:32.621Z,3.45
2022-10-05T15:04:21.137Z,2.75
2022-10-05T15:07:14.259Z,3.60
2022-10-05T15:09:59.443Z,2.63
2022-10-05T15:12:39.175Z,4.00
2022-10-05T15:15:34.522Z,2.20
2022-10-05T15:18:05.137Z,3.33
2022-10-05T15:20:39.358Z,3.33
2022-10-05T15:23:24.763Z,2.15
2022-10-05T15:26:05.118Z,2.38
2022-10-05T15:28:41.440Z,2.85
2022-10-05T15:31:20.064Z,2.85
2022-10-05T15:34:03.913Z,3.17
2022-10-05T15:36:52.014Z,2.10
2022-10-05T15:39:30.690Z,2.90
2022-10-05T15:42:15.223Z,3.25
2022-10-05T15:45:25.852Z,3.00
2022-10-05T15:48:10.883Z,3.17
2022-10-05T15:50:45.910Z,2.08
2022-10-05T15:53:22.717Z,1.60
2022-10-05T15:55:55.568Z,1.95
2022-10-05T15:58:46.838Z,1.80
2022-10-05T16:01:19.507Z,1.40
2022-10-05T16:03:50.387Z,3.67
2022-10-05T16:07:01.686Z,2.63
2022-10-05T16:09:46.277Z,2.47
2022-10-05T16:12:18.972Z,1.90
2022-10-05T16:15:20.121Z,1.63
2022-10-05T16:18:00.144Z,4.20
2022-10-05T16:20:35.841Z,2.40
2022-10-05T16:23:24.646Z,5.15
2022-10-05T16:26:00.682Z,3.47
2022-10-05T16:28:50.334Z,3.05
2022-10-05T16:31:26.680Z,2.78
2022-10-05T16:33:55.318Z,2.17
2022-10-05T16:36:40.019Z,1.58
2022-10-05T16:39:37.488Z,3.78
2022-10-05T16:42:15.346Z,2.90
2022-10-05T16:44:49.835Z,2.20
2022-10-05T16:47:53.773Z,1.92
2022-10-05T16:50:44.293Z,2.58
2022-10-05T16:53:21.206Z,2.00
2022-10-05T16:55:50.416Z,2.58
2022-10-05T16:58:40.287Z,2.67
2022-10-05T17:01:16.178Z,3.47
2022-10-05T17:04:05.902Z,2.40
2022-10-05T17:06:35.278Z,2.25
2022-10-05T17:09:20.456Z,2.03
2022-10-05T17:12:09.946Z,1.85
2022-10-05T17:15:10.278Z,2.67
2022-10-05T17:18:01.640Z,2.70
2022-10-05T17:20:31.209Z,1.70
2022-10-05T17:23:18.295Z,2.92
2022-10-05T17:26:09.298Z,4.28
2022-10-05T17:28:38.930Z,3.33
2022-10-05T17:31:12.949Z,3.92
2022-10-05T17:34:13.624Z,2.15
2022-10-05T17:36:42.956Z,3.58
2022-10-05T17:39:18.312Z,4.25
2022-10-05T17:41:45.260Z,2.35
2022-10-05T17:44:19.404Z,1.60
2022-10-05T17:46:56.538Z,3.28
2022-10-05T17:49:26.553Z,1.75
2022-10-05T17:52:11.495Z,2.70
2022-10-05T17:55:02.490Z,4.63
2022-10-05T17:57:29.321Z,1.73
2022-10-05T17:59:57.060Z,3.47
2022-10-05T18:02:36.269Z,2.17
2022-10-05T18:05:12.368Z,2.55
2022-10-05T18:07:40.805Z,2.40
2022-10-05T18:10:11.528Z,3.40
2022-10-05T18:12:38.717Z,2.47
2022-10-05T18:15:07.852Z,3.20
2022-10-05T18:17:57.405Z,2.03
2022-10-05T18:20:28.988Z,4.63
2022-10-05T18:23:01.440Z,2.57
2022-10-05T18:28:10.376Z,1.90
2022-10-05T18:31:16.366Z,4.60
2022-10-05T18:34:10.278Z,6.25
2022-10-05T18:37:07.533Z,5.97
2022-10-05T18:39:50.607Z,3.05
2022-10-05T18:42:41.653Z,2.45
2022-10-05T18:45:22.343Z,3.55
2022-10-05T18:48:17.197Z,2.10
2022-10-05T18:50:49.557Z,2.30
2022-10-05T18:53:27.692Z,3.05
2022-10-05T18:55:58.897Z,4.00
2022-10-05T18:58:40.740Z,3.03
2022-10-05T19:01:26.823Z,3.97
2022-10-05T19:04:27.099Z,3.50
2022-10-05T19:07:18.193Z,2.67
2022-10-05T19:10:01.316Z,4.40
2022-10-05T19:12:46.515Z,3.75
2022-10-05T19:15:54.371Z,2.92
2022-10-05T19:18:42.024Z,3.00
2022-10-05T19:21:32.959Z,3.70
2022-10-05T19:24:18.792Z,3.33
2022-10-05T19:27:08.270Z,4.47
2022-10-05T19:30:00.995Z,5.60
2022-10-05T19:32:42.970Z,3.65
2022-10-05T19:35:33.216Z,5.28
2022-10-05T19:38:24.015Z,7.13
2022-10-05T19:41:03.489Z,5.28
2022-10-05T19:43:41.983Z,4.47
2022-10-05T19:46:19.293Z,5.20
2022-10-05T19:48:48.947Z,4.00
2022-10-05T19:51:29.267Z,5.22
2022-10-05T19:54:34.457Z,5.47
2022-10-05T19:57:02.781Z,4.95
2022-10-05T19:59:32.517Z,3.47
2022-10-05T20:01:59.266Z,5.28
2022-10-05T20:04:43.982Z,2.28
2022-10-05T20:07:15.697Z,3.42
2022-10-05T20:09:53.660Z,3.22
2022-10-05T20:12:22.846Z,2.50
2022-10-05T20:15:23.940Z,2.95
2022-10-05T20:18:09.012Z,4.20
2022-10-05T20:20:38.273Z,2.92
2022-10-05T20:23:28.045Z,3.30
2022-10-05T20:26:13.137Z,3.15
2022-10-05T20:28:39.930Z,2.83
2022-10-05T20:31:07.949Z,3.33
2022-10-05T20:33:34.452Z,3.60
2022-10-05T20:36:03.545Z,2.55
2022-10-05T20:38:31.514Z,3.40
2022-10-05T20:40:58.305Z,4.95
2022-10-05T20:43:24.734Z,3.08
2022-10-05T20:45:52.223Z,2.72
2022-10-05T20:48:19.459Z,4.55
2022-10-05T20:50:47.267Z,3.13
2022-10-05T20:53:13.839Z,4.40
2022-10-05T20:55:40.501Z,4.75
2022-10-05T20:58:08.872Z,3.80
2022-10-05T21:01:04.488Z,2.42
2022-10-05T21:03:30.912Z,2.72
2022-10-05T21:05:57.556Z,3.25
2022-10-05T21:08:25.132Z,5.30
2022-10-05T21:10:51.970Z,4.75
2022-10-05T21:13:18.413Z,4.63
2022-10-05T21:15:44.941Z,5.30
2022-10-05T21:18:11.397Z,4.70
2022-10-05T21:20:37.771Z,2.50
2022-10-05T21:23:04.376Z,5.07
2022-10-05T21:25:30.733Z,3.65
2022-10-05T21:27:57.183Z,4.30
2022-10-05T21:30:23.672Z,5.05
2022-10-05T21:32:50.276Z,7.28
2022-10-05T21:35:16.837Z,4.38
2022-10-05T21:37:43.372Z,4.25
2022-10-05T21:40:10.364Z,3.30
2022-10-05T21:42:36.956Z,6.10
2022-10-05T21:45:03.673Z,2.78
2022-10-05T21:47:30.255Z,4.38
2022-10-05T21:49:57.240Z,3.53
2022-10-05T21:52:24.041Z,4.90
2022-10-05T21:54:50.518Z,3.70
2022-10-05T21:57:16.986Z,3.03
2022-10-05T21:59:43.616Z,5.40
2022-10-05T22:02:10.137Z,4.88
2022-10-05T22:04:36.582Z,3.42
2022-10-05T22:07:10.042Z,3.88
2022-10-05T22:09:36.485Z,2.58
2022-10-05T22:12:02.968Z,8.05
2022-10-05T22:14:29.333Z,5.38
2022-10-05T22:16:55.765Z,2.75
2022-10-05T22:19:22.167Z,6.70
2022-10-05T22:21:48.611Z,3.03
2022-10-05T22:24:15.029Z,7.05
2022-10-05T22:26:44.058Z,3.08
2022-10-05T22:29:10.653Z,4.95
2022-10-05T22:31:37.242Z,4.32
2022-10-05T22:34:03.785Z,4.03
2022-10-05T22:36:30.311Z,3.28
2022-10-05T22:38:56.739Z,4.07
2022-10-05T22:41:23.207Z,4.22
2022-10-05T22:43:50.773Z,3.15
2022-10-05T22:46:18.011Z,3.63
2022-10-05T22:48:44.530Z,3.28
2022-10-05T22:51:10.941Z,6.57
2022-10-05T22:53:38.519Z,3.63
2022-10-05T22:56:10.179Z,3.63
2022-10-05T22:58:36.758Z,5.10
2022-10-05T23:01:11.898Z,5.05
2022-10-05T23:03:38.602Z,4.72
2022-10-05T23:06:07.644Z,3.05
2022-10-05T23:08:35.494Z,5.03
2022-10-05T23:11:06.289Z,4.05
2022-10-05T23:13:33.440Z,5.75
2022-10-05T23:16:17.618Z,5.30
2022-10-05T23:18:44.701Z,2.88
2022-10-05T23:21:11.529Z,5.65
2022-10-05T23:23:39.677Z,5.07
2022-10-05T23:26:07.856Z,3.83
2022-10-05T23:28:34.741Z,6.07
2022-10-05T23:31:03.317Z,2.28
2022-10-05T23:33:30.347Z,1.30
2022-10-05T23:35:58.516Z,3.30
2022-10-05T23:38:25.471Z,4.97
2022-10-05T23:40:52.226Z,0.85
2022-10-05T23:43:18.644Z,1.05
2022-10-05T23:45:45.666Z,1.25
2022-10-05T23:48:12.373Z,1.05
2022-10-05T23:50:40.106Z,1.73
2022-10-05T23:53:06.890Z,1.25
2022-10-05T23:55:33.301Z,2.53
2022-10-05T23:57:59.790Z,1.40
